Terminal Aerodrome Forecast
Issued by NWS

Home | Current Version | Previous Version | Graphics & Text | Print | Product List | Glossary On
Versions: 1 2 3 4 5 6 7 8 9 10 11 12 13 14 15 16
711
FTUS43 KGRB 191534 AAA
TAFRHI
TAF AMD
KRHI 191534Z 1916/2012 31010G17KT P6SM VCSH OVC022
     FM191900 34009KT P6SM BKN035
     FM200100 33003KT P6SM SKC=

USA.gov is the U.S. government's official web portal to all federal, state and local government web resources and services.